createdAt,value
2022-12-18T00:01:40.399Z,18.07
2022-12-18T00:11:42.443Z,19.25
2022-12-18T00:21:44.871Z,8.83
2022-12-18T00:31:46.323Z,3.83
2022-12-18T00:42:06.025Z,18.17
2022-12-18T00:52:07.399Z,18.93
2022-12-18T01:02:08.873Z,18.43
2022-12-18T01:12:10.376Z,18.95
2022-12-18T01:22:11.727Z,14.93
2022-12-18T01:32:13.064Z,15.27
2022-12-18T01:42:17.120Z,11.80
2022-12-18T01:52:21.019Z,13.65
2022-12-18T02:02:23.139Z,16.47
2022-12-18T02:12:29.168Z,14.83
2022-12-18T02:22:48.266Z,15.70
2022-12-18T02:32:55.145Z,12.87
2022-12-18T02:43:02.806Z,15.00
2022-12-18T02:53:28.585Z,16.10
2022-12-18T03:03:48.932Z,15.15
2022-12-18T03:13:58.699Z,12.50
2022-12-18T03:24:01.668Z,12.03
2022-12-18T03:34:07.931Z,14.95
2022-12-18T03:44:16.858Z,13.23
2022-12-18T03:54:19.734Z,13.07
2022-12-18T04:04:23.185Z,11.38
2022-12-18T04:14:24.549Z,13.13
2022-12-18T04:24:25.895Z,12.93
2022-12-18T04:34:27.264Z,9.77
2022-12-18T04:44:28.593Z,12.77
2022-12-18T04:54:29.934Z,9.77
2022-12-18T05:04:31.279Z,12.80
2022-12-18T05:14:32.747Z,11.18
2022-12-18T05:24:34.113Z,13.53
2022-12-18T05:34:35.486Z,12.33
2022-12-18T05:44:36.834Z,11.55
2022-12-18T05:54:38.195Z,10.77
2022-12-18T06:04:39.562Z,12.37
2022-12-18T06:14:40.994Z,14.48
2022-12-18T06:24:42.363Z,8.05
2022-12-18T06:34:43.879Z,11.10
2022-12-18T06:44:45.243Z,10.50
2022-12-18T06:54:46.591Z,9.70
2022-12-18T07:04:50.898Z,11.93
2022-12-18T07:14:52.258Z,10.87
2022-12-18T07:24:53.939Z,11.18
2022-12-18T07:34:55.436Z,9.63
2022-12-18T07:44:57.294Z,13.00
2022-12-18T07:54:59.745Z,14.55
2022-12-18T08:05:01.110Z,11.05
2022-12-18T08:15:02.531Z,6.70
2022-12-18T08:25:04.730Z,9.90
2022-12-18T08:35:07.154Z,7.88
2022-12-18T08:45:09.179Z,8.40
2022-12-18T08:55:11.035Z,9.37
2022-12-18T09:05:12.411Z,7.13
2022-12-18T09:15:13.774Z,9.10
2022-12-18T09:25:15.143Z,10.70
2022-12-18T09:35:16.617Z,10.40
2022-12-18T09:45:18.931Z,10.15
2022-12-18T09:55:36.477Z,9.80
2022-12-18T10:05:43.409Z,6.03
2022-12-18T10:15:59.918Z,2.47
2022-12-18T10:26:07.885Z,9.83
2022-12-18T10:36:09.586Z,12.27
2022-12-18T10:46:10.911Z,7.75
2022-12-18T10:56:13.143Z,9.87
2022-12-18T11:06:22.547Z,10.77
2022-12-18T11:16:24.751Z,8.38
2022-12-18T11:26:35.650Z,14.70
2022-12-18T11:36:44.534Z,14.17
2022-12-18T11:46:56.225Z,13.03
2022-12-18T11:57:31.879Z,13.20
2022-12-18T12:08:16.023Z,7.27
2022-12-18T12:18:32.535Z,6.00
2022-12-18T12:28:49.122Z,5.47
2022-12-18T12:38:56.026Z,6.40
2022-12-18T12:49:00.601Z,4.27
2022-12-18T12:59:21.980Z,5.20
2022-12-18T13:09:23.603Z,5.35
2022-12-18T13:19:27.308Z,5.50
2022-12-18T13:29:55.060Z,5.80
2022-12-18T13:39:56.712Z,4.60
2022-12-18T13:49:58.575Z,5.87
2022-12-18T14:00:29.880Z,6.30
2022-12-18T14:10:48.699Z,8.07
2022-12-18T14:20:54.246Z,5.83
2022-12-18T14:30:56.551Z,7.73
2022-12-18T14:41:13.160Z,8.40
2022-12-18T14:51:21.081Z,7.43
2022-12-18T15:01:38.637Z,8.27
2022-12-18T15:11:42.831Z,6.37
2022-12-18T15:21:44.480Z,6.45
2022-12-18T15:32:19.579Z,7.07
2022-12-18T15:42:39.631Z,5.03
2022-12-18T15:52:44.866Z,8.70
2022-12-18T16:02:46.404Z,7.83
2022-12-18T16:12:48.355Z,8.27
2022-12-18T16:22:50.411Z,8.25
2022-12-18T16:32:51.849Z,7.75
2022-12-18T16:42:53.206Z,9.63
2022-12-18T16:52:54.571Z,11.83
2022-12-18T17:02:56.029Z,8.52
2022-12-18T17:12:57.559Z,12.80
2022-12-18T17:22:58.908Z,11.40
2022-12-18T17:33:01.463Z,9.95
2022-12-18T17:43:02.934Z,12.20
2022-12-18T17:53:04.302Z,8.37
2022-12-18T18:03:05.741Z,10.30
2022-12-18T18:13:42.058Z,11.85
2022-12-18T18:23:47.773Z,11.17
2022-12-18T18:33:50.817Z,13.93
2022-12-18T18:43:56.939Z,13.25
2022-12-18T18:53:58.330Z,13.67
2022-12-18T19:04:01.473Z,12.47
2022-12-18T19:14:05.926Z,15.80
2022-12-18T19:24:07.712Z,10.57
2022-12-18T19:34:11.938Z,10.73
2022-12-18T19:44:17.525Z,12.95
2022-12-18T19:54:18.928Z,14.00
2022-12-18T20:04:20.332Z,11.63
2022-12-18T20:14:22.835Z,15.67
2022-12-18T20:24:25.144Z,21.65
2022-12-18T20:34:26.739Z,13.30
2022-12-18T20:44:29.069Z,14.83
2022-12-18T20:54:30.436Z,14.70
2022-12-18T21:04:31.795Z,7.97
2022-12-18T21:14:33.305Z,14.20
2022-12-18T21:24:34.678Z,14.70
2022-12-18T21:34:36.977Z,15.05
2022-12-18T21:44:41.653Z,18.70
2022-12-18T21:54:43.770Z,12.37
2022-12-18T22:04:46.804Z,11.95
2022-12-18T22:14:48.212Z,13.73
2022-12-18T22:24:49.531Z,12.67
2022-12-18T22:34:50.891Z,12.18
2022-12-18T22:44:52.232Z,10.63
2022-12-18T22:54:54.478Z,14.23
2022-12-18T23:04:56.002Z,19.52
2022-12-18T23:14:57.564Z,12.80
2022-12-18T23:24:58.967Z,12.17
2022-12-18T23:35:00.326Z,13.07
2022-12-18T23:45:03.908Z,12.35
2022-12-18T23:55:10.705Z,15.30
